createdAt,value
2023-03-25T00:00:18.705Z,1.60
2023-03-25T00:02:48.045Z,1.60
2023-03-25T00:05:16.306Z,1.60
2023-03-25T00:07:44.514Z,2.38
2023-03-25T00:10:12.718Z,1.52
2023-03-25T00:12:40.156Z,1.45
2023-03-25T00:15:08.692Z,1.85
2023-03-25T00:17:36.699Z,2.00
2023-03-25T00:20:11.852Z,1.40
2023-03-25T00:22:44.481Z,2.00
2023-03-25T00:25:17.442Z,1.77
2023-03-25T00:27:46.371Z,1.53
2023-03-25T00:30:14.689Z,1.98
2023-03-25T00:32:41.440Z,2.20
2023-03-25T00:35:08.631Z,1.52
2023-03-25T00:37:35.352Z,1.42
2023-03-25T00:40:02.548Z,1.80
2023-03-25T00:42:29.179Z,2.13
2023-03-25T00:44:55.781Z,1.63
2023-03-25T00:47:22.988Z,1.85
2023-03-25T00:49:51.565Z,2.20
2023-03-25T00:52:18.510Z,1.55
2023-03-25T00:54:45.858Z,1.30
2023-03-25T00:57:12.633Z,1.35
2023-03-25T00:59:39.342Z,1.83
2023-03-25T01:02:06.951Z,1.67
2023-03-25T01:04:34.976Z,1.88
2023-03-25T01:07:03.215Z,2.13
2023-03-25T01:09:30.363Z,2.08
2023-03-25T01:11:57.378Z,1.77
2023-03-25T01:14:29.819Z,1.60
2023-03-25T01:16:58.164Z,1.50
2023-03-25T01:19:24.870Z,1.52
2023-03-25T01:21:51.820Z,1.70
2023-03-25T01:24:18.785Z,1.50
2023-03-25T01:26:45.892Z,1.52
2023-03-25T01:29:21.135Z,1.42
2023-03-25T01:31:48.361Z,1.73
2023-03-25T01:34:15.761Z,1.70
2023-03-25T01:36:46.421Z,1.80
2023-03-25T01:39:18.650Z,1.55
2023-03-25T01:41:50.153Z,1.50
2023-03-25T01:44:20.961Z,1.60
2023-03-25T01:46:49.129Z,1.45
2023-03-25T01:49:23.389Z,1.80
2023-03-25T01:51:57.412Z,2.88
2023-03-25T01:54:24.338Z,1.60
2023-03-25T01:56:52.128Z,1.33
2023-03-25T01:59:20.902Z,1.83
2023-03-25T02:01:48.109Z,1.88
2023-03-25T02:04:22.767Z,1.67
2023-03-25T02:06:52.890Z,1.45
2023-03-25T02:09:24.465Z,1.48
2023-03-25T02:11:54.606Z,1.75
2023-03-25T02:14:24.881Z,1.80
2023-03-25T02:17:09.254Z,1.98
2023-03-25T02:19:35.841Z,1.33
2023-03-25T02:22:21.369Z,1.55
2023-03-25T02:25:09.849Z,1.38
2023-03-25T02:27:57.111Z,1.52
2023-03-25T02:30:50.952Z,1.60
2023-03-25T02:33:46.625Z,1.33
2023-03-25T02:36:16.234Z,1.73
2023-03-25T02:38:48.201Z,1.75
2023-03-25T02:41:26.171Z,2.10
2023-03-25T02:43:55.629Z,1.25
2023-03-25T02:46:26.043Z,0.80
2023-03-25T02:49:01.281Z,1.45
2023-03-25T02:51:32.499Z,1.35
2023-03-25T02:54:06.657Z,1.63
2023-03-25T02:56:34.245Z,1.95
2023-03-25T02:59:02.308Z,1.50
2023-03-25T03:01:28.983Z,1.48
2023-03-25T03:03:56.698Z,1.98
2023-03-25T03:06:25.273Z,1.23
2023-03-25T03:08:57.400Z,1.50
2023-03-25T03:11:56.935Z,1.80
2023-03-25T03:14:37.647Z,1.20
2023-03-25T03:17:24.647Z,1.52
2023-03-25T03:20:06.805Z,1.75
2023-03-25T03:22:36.786Z,1.55
2023-03-25T03:25:14.610Z,1.63
2023-03-25T03:28:07.236Z,1.60
2023-03-25T03:30:46.548Z,1.20
2023-03-25T03:33:15.367Z,1.33
2023-03-25T03:35:50.286Z,1.15
2023-03-25T03:38:19.802Z,0.90
2023-03-25T03:40:50.157Z,1.75
2023-03-25T03:43:20.475Z,1.20
2023-03-25T03:45:50.067Z,0.98
2023-03-25T03:48:38.564Z,1.58
2023-03-25T03:51:10.359Z,1.48
2023-03-25T03:53:41.684Z,1.67
2023-03-25T03:56:16.434Z,1.52
2023-03-25T03:58:43.783Z,1.90
2023-03-25T04:01:27.940Z,1.58
2023-03-25T04:06:58.591Z,1.40
2023-03-25T04:09:28.125Z,1.20
2023-03-25T04:12:00.206Z,1.60
2023-03-25T04:14:27.241Z,1.90
2023-03-25T04:16:55.392Z,1.88
2023-03-25T04:19:23.641Z,1.40
2023-03-25T04:21:50.303Z,2.50
2023-03-25T04:24:19.464Z,1.77
2023-03-25T04:26:47.588Z,1.55
2023-03-25T04:29:14.360Z,1.52
2023-03-25T04:31:46.006Z,1.83
2023-03-25T04:34:14.813Z,1.60
2023-03-25T04:36:43.032Z,1.92
2023-03-25T04:39:12.762Z,1.63
2023-03-25T04:41:39.874Z,1.70
2023-03-25T04:44:07.747Z,1.88
2023-03-25T04:46:36.364Z,2.13
2023-03-25T04:49:06.053Z,1.60
2023-03-25T04:51:33.169Z,2.35
2023-03-25T04:53:59.856Z,1.70
2023-03-25T04:56:26.558Z,1.80
2023-03-25T04:58:53.437Z,1.80
2023-03-25T05:01:32.292Z,1.80
2023-03-25T05:04:07.478Z,1.67
2023-03-25T05:06:35.786Z,1.52
2023-03-25T05:09:04.610Z,2.45
2023-03-25T05:11:33.345Z,1.52
2023-03-25T05:14:00.519Z,1.40
2023-03-25T05:16:27.192Z,1.90
2023-03-25T05:18:53.895Z,1.45
2023-03-25T05:21:21.564Z,1.48
2023-03-25T05:23:48.254Z,1.98
2023-03-25T05:26:15.109Z,1.60
2023-03-25T05:28:42.284Z,1.65
2023-03-25T05:31:08.942Z,1.70
2023-03-25T05:33:42.758Z,1.38
2023-03-25T05:38:41.743Z,1.92
2023-03-25T05:41:16.728Z,1.60
2023-03-25T05:43:47.518Z,1.35
2023-03-25T05:46:14.799Z,1.63
2023-03-25T05:48:41.593Z,1.20
2023-03-25T05:51:15.614Z,0.85
2023-03-25T05:53:49.834Z,1.08
2023-03-25T05:56:21.643Z,0.85
2023-03-25T05:58:49.801Z,1.00
2023-03-25T06:01:31.914Z,1.38
2023-03-25T06:04:01.633Z,1.20
2023-03-25T06:06:29.267Z,0.70
2023-03-25T06:08:56.008Z,0.95
2023-03-25T06:11:22.611Z,1.15
2023-03-25T06:13:51.994Z,0.80
2023-03-25T06:16:29.452Z,1.10
2023-03-25T06:18:59.312Z,1.13
2023-03-25T06:21:28.340Z,1.10
2023-03-25T06:23:55.322Z,1.20
2023-03-25T06:26:23.470Z,1.00
2023-03-25T06:28:50.679Z,0.70
2023-03-25T06:31:22.916Z,0.80
2023-03-25T06:33:50.796Z,1.52
2023-03-25T06:36:20.289Z,0.95
2023-03-25T06:38:49.163Z,0.85
2023-03-25T06:41:20.104Z,0.88
2023-03-25T06:43:47.924Z,0.88
2023-03-25T06:46:14.557Z,0.98
2023-03-25T06:48:41.206Z,0.70
2023-03-25T06:51:08.074Z,1.20
2023-03-25T06:53:34.737Z,1.30
2023-03-25T06:56:01.376Z,0.98
2023-03-25T06:58:35.178Z,1.00
2023-03-25T07:01:07.897Z,1.20
2023-03-25T07:03:37.485Z,1.00
2023-03-25T07:06:05.716Z,0.88
2023-03-25T07:08:32.603Z,1.40
2023-03-25T07:11:07.515Z,1.10
2023-03-25T07:13:35.077Z,1.40
2023-03-25T07:16:03.056Z,0.95
2023-03-25T07:18:29.870Z,1.15
2023-03-25T07:20:56.502Z,1.15
2023-03-25T07:23:23.095Z,1.30
2023-03-25T07:25:50.115Z,1.00
2023-03-25T07:28:16.917Z,1.13
2023-03-25T07:30:43.534Z,1.23
2023-03-25T07:33:10.984Z,1.08
2023-03-25T07:35:37.627Z,1.13
2023-03-25T07:38:04.345Z,1.42
2023-03-25T07:40:31.100Z,1.15
2023-03-25T07:42:57.774Z,1.10
2023-03-25T07:45:24.675Z,1.20
2023-03-25T07:47:51.513Z,0.90
2023-03-25T07:50:20.011Z,1.00
2023-03-25T07:52:46.680Z,1.13
2023-03-25T07:55:14.305Z,1.10
2023-03-25T07:57:44.445Z,0.95
2023-03-25T08:00:11.998Z,1.10
2023-03-25T08:02:39.373Z,1.02
2023-03-25T08:05:06.906Z,0.90
2023-03-25T08:07:33.796Z,1.00
2023-03-25T08:10:00.414Z,1.00
2023-03-25T08:12:27.058Z,1.20
2023-03-25T08:14:53.661Z,1.02
2023-03-25T08:17:20.270Z,1.08
2023-03-25T08:19:46.921Z,1.13
2023-03-25T08:22:13.777Z,1.65
2023-03-25T08:24:40.628Z,1.00
2023-03-25T08:27:16.323Z,1.10
2023-03-25T08:29:44.937Z,0.90
2023-03-25T08:32:11.718Z,1.73
2023-03-25T08:34:39.812Z,1.00
2023-03-25T08:37:10.033Z,0.85
2023-03-25T08:39:40.112Z,0.80
2023-03-25T08:42:08.000Z,1.00
2023-03-25T08:44:35.445Z,0.98
2023-03-25T08:47:02.692Z,1.60
2023-03-25T08:49:29.773Z,1.00
2023-03-25T08:51:58.216Z,0.90
2023-03-25T08:54:26.114Z,1.50
2023-03-25T08:56:53.340Z,0.90
2023-03-25T08:59:20.492Z,0.93
2023-03-25T09:01:47.595Z,1.10
2023-03-25T09:04:14.712Z,1.10
2023-03-25T09:06:47.763Z,0.98
2023-03-25T09:09:15.504Z,1.00
2023-03-25T09:11:42.620Z,0.85
2023-03-25T09:14:09.306Z,1.10
2023-03-25T09:16:35.949Z,1.45
2023-03-25T09:19:02.987Z,1.65
2023-03-25T09:21:29.820Z,1.23
2023-03-25T09:23:56.493Z,0.98
2023-03-25T09:26:23.238Z,1.13
2023-03-25T09:28:49.876Z,0.98
2023-03-25T09:31:16.506Z,1.35
2023-03-25T09:33:43.564Z,1.23
2023-03-25T09:36:11.600Z,1.45
2023-03-25T09:38:38.239Z,1.13
2023-03-25T09:41:41.263Z,1.13
2023-03-25T09:44:29.570Z,1.00
2023-03-25T09:46:59.077Z,1.33
2023-03-25T09:49:31.340Z,1.17
2023-03-25T09:51:58.424Z,1.15
2023-03-25T09:54:25.737Z,1.40
2023-03-25T09:56:53.762Z,1.00
2023-03-25T09:59:25.960Z,1.23
2023-03-25T10:01:53.036Z,1.17
2023-03-25T10:04:38.219Z,1.52
2023-03-25T10:07:22.767Z,1.20
2023-03-25T10:10:02.816Z,0.90
2023-03-25T10:12:42.763Z,1.55
2023-03-25T10:15:13.015Z,1.25
2023-03-25T10:17:45.111Z,1.00
2023-03-25T10:20:12.895Z,1.27
2023-03-25T10:22:52.267Z,0.95
2023-03-25T10:25:23.186Z,1.10
2023-03-25T10:27:51.981Z,1.15
2023-03-25T10:30:22.003Z,1.35
2023-03-25T10:32:52.231Z,1.20
2023-03-25T10:35:36.742Z,1.00
2023-03-25T10:38:14.824Z,1.17
2023-03-25T10:40:53.417Z,1.10
2023-03-25T10:43:39.409Z,1.20
2023-03-25T10:46:17.092Z,0.73
2023-03-25T10:48:44.412Z,1.00
2023-03-25T10:51:12.989Z,0.90
2023-03-25T10:53:41.402Z,1.00
2023-03-25T10:56:12.705Z,1.15
2023-03-25T10:58:41.148Z,1.30
2023-03-25T11:01:12.513Z,1.25
2023-03-25T11:03:40.614Z,0.85
2023-03-25T11:06:07.640Z,0.80
2023-03-25T11:08:34.261Z,1.00
2023-03-25T11:11:02.289Z,1.10
2023-03-25T11:13:30.988Z,1.33
2023-03-25T11:16:03.083Z,1.00
2023-03-25T11:18:31.509Z,0.93
2023-03-25T11:21:09.229Z,0.80
2023-03-25T11:23:42.522Z,0.93
2023-03-25T11:26:25.041Z,1.25
2023-03-25T11:28:56.003Z,0.90
2023-03-25T11:31:25.248Z,0.85
2023-03-25T11:34:22.045Z,1.05
2023-03-25T11:37:00.201Z,1.02
2023-03-25T11:39:39.400Z,0.90
2023-03-25T11:42:29.983Z,0.98
2023-03-25T11:44:59.417Z,0.60
2023-03-25T11:47:31.331Z,0.75
2023-03-25T11:49:58.443Z,0.60
2023-03-25T11:52:29.552Z,0.82
2023-03-25T11:54:57.102Z,0.55
2023-03-25T11:57:28.124Z,0.55
2023-03-25T12:00:12.113Z,0.73
2023-03-25T12:02:40.402Z,0.60
2023-03-25T12:05:14.398Z,0.80
2023-03-25T12:10:19.742Z,0.97
2023-03-25T12:12:54.788Z,0.90
2023-03-25T12:15:39.416Z,1.20
2023-03-25T12:18:30.391Z,1.10
2023-03-25T12:21:09.615Z,0.60
2023-03-25T12:24:04.167Z,0.80
2023-03-25T12:30:11.962Z,0.80
2023-03-25T12:32:51.471Z,0.80
2023-03-25T12:35:56.178Z,0.85
2023-03-25T12:38:40.140Z,0.98
2023-03-25T12:41:11.711Z,0.75
2023-03-25T12:43:51.839Z,0.90
2023-03-25T12:46:38.583Z,0.82
2023-03-25T12:49:29.900Z,0.65
2023-03-25T12:52:31.770Z,1.13
2023-03-25T12:55:23.624Z,0.70
2023-03-25T12:57:56.054Z,0.88
2023-03-25T13:00:43.888Z,0.82
2023-03-25T13:03:12.480Z,0.95
2023-03-25T13:06:11.350Z,0.93
2023-03-25T13:08:56.559Z,1.00
2023-03-25T13:11:39.627Z,1.05
2023-03-25T13:14:09.808Z,0.60
2023-03-25T13:16:38.209Z,0.77
2023-03-25T13:19:16.762Z,1.08
2023-03-25T13:21:50.393Z,0.70
2023-03-25T13:24:49.633Z,0.95
2023-03-25T13:27:17.230Z,0.85
2023-03-25T13:29:49.315Z,0.60
2023-03-25T13:32:22.520Z,0.70
2023-03-25T13:34:58.756Z,0.60
2023-03-25T13:37:39.588Z,0.68
2023-03-25T13:40:27.805Z,0.65
2023-03-25T13:43:13.251Z,0.60
2023-03-25T13:45:54.988Z,0.50
2023-03-25T13:48:34.423Z,0.70
2023-03-25T13:51:04.272Z,0.60
2023-03-25T13:53:44.090Z,0.70
2023-03-25T13:56:11.483Z,0.65
2023-03-25T13:58:42.901Z,0.80
2023-03-25T14:01:17.988Z,0.65
2023-03-25T14:04:18.481Z,0.90
2023-03-25T14:07:09.766Z,0.80
2023-03-25T14:10:02.657Z,0.80
2023-03-25T14:12:55.159Z,1.52
2023-03-25T14:15:26.482Z,1.08
2023-03-25T14:17:55.952Z,0.82
2023-03-25T14:20:48.347Z,0.85
2023-03-25T14:23:20.952Z,1.00
2023-03-25T14:25:57.578Z,1.05
2023-03-25T14:28:51.305Z,0.88
2023-03-25T14:31:23.971Z,1.23
2023-03-25T14:34:10.928Z,0.75
2023-03-25T14:36:40.675Z,0.70
2023-03-25T14:39:11.077Z,0.75
2023-03-25T14:41:56.790Z,0.98
2023-03-25T14:44:28.755Z,0.80
2023-03-25T14:47:17.143Z,0.98
2023-03-25T14:49:54.040Z,0.98
2023-03-25T14:52:28.683Z,0.90
2023-03-25T14:54:56.595Z,0.75
2023-03-25T14:57:28.680Z,0.80
2023-03-25T15:00:01.765Z,0.90
2023-03-25T15:02:32.308Z,0.70
2023-03-25T15:05:04.141Z,0.80
2023-03-25T15:07:47.748Z,0.68
2023-03-25T15:10:23.268Z,0.90
2023-03-25T15:12:52.988Z,1.02
2023-03-25T15:15:53.731Z,1.05
2023-03-25T15:18:35.140Z,0.70
2023-03-25T15:21:10.945Z,0.90
2023-03-25T15:23:43.366Z,1.00
2023-03-25T15:26:33.691Z,0.75
2023-03-25T15:29:39.280Z,0.98
2023-03-25T15:32:31.711Z,0.85
2023-03-25T15:35:17.650Z,1.00
2023-03-25T15:38:18.090Z,1.15
2023-03-25T15:41:10.745Z,1.48
2023-03-25T15:43:57.859Z,1.00
2023-03-25T15:46:54.363Z,1.13
2023-03-25T15:49:38.868Z,1.20
2023-03-25T15:52:44.300Z,1.10
2023-03-25T15:55:23.982Z,0.80
2023-03-25T15:57:56.034Z,1.13
2023-03-25T16:00:44.864Z,0.95
2023-03-25T16:03:24.107Z,1.10
2023-03-25T16:05:58.178Z,1.10
2023-03-25T16:11:19.824Z,1.10
2023-03-25T16:13:47.638Z,1.27
2023-03-25T16:16:17.337Z,1.10
2023-03-25T16:18:46.052Z,1.15
2023-03-25T16:21:12.917Z,1.02
2023-03-25T16:23:39.873Z,0.73
2023-03-25T16:26:06.772Z,1.08
2023-03-25T16:28:39.594Z,1.13
2023-03-25T16:31:26.458Z,1.00
2023-03-25T16:33:58.869Z,1.42
2023-03-25T16:36:26.389Z,1.05
2023-03-25T16:38:53.430Z,1.20
2023-03-25T16:41:20.568Z,0.98
2023-03-25T16:43:47.313Z,1.02
2023-03-25T16:46:16.191Z,0.90
2023-03-25T16:48:51.105Z,1.38
2023-03-25T16:51:32.017Z,1.13
2023-03-25T16:54:01.559Z,1.10
2023-03-25T16:56:33.364Z,1.48
2023-03-25T16:59:27.880Z,1.60
2023-03-25T17:01:56.987Z,1.83
2023-03-25T17:04:41.953Z,1.08
2023-03-25T17:07:13.788Z,1.40
2023-03-25T17:09:42.958Z,1.10
2023-03-25T17:12:12.265Z,0.93
2023-03-25T17:14:42.790Z,1.52
2023-03-25T17:17:19.783Z,1.20
2023-03-25T17:19:48.406Z,0.80
2023-03-25T17:22:34.960Z,1.23
2023-03-25T17:25:27.449Z,1.00
2023-03-25T17:27:56.089Z,1.10
2023-03-25T17:30:28.998Z,1.08
2023-03-25T17:33:10.548Z,1.48
2023-03-25T17:35:39.335Z,1.20
2023-03-25T17:38:08.897Z,1.38
2023-03-25T17:40:35.920Z,1.05
2023-03-25T17:43:02.768Z,1.92
2023-03-25T17:45:29.604Z,1.90
2023-03-25T17:47:56.580Z,0.90
2023-03-25T17:50:25.812Z,2.58
2023-03-25T17:52:52.484Z,1.52
2023-03-25T17:55:20.474Z,1.40
2023-03-25T17:57:49.689Z,1.30
2023-03-25T18:00:18.504Z,1.40
2023-03-25T18:02:48.532Z,1.33
2023-03-25T18:05:15.517Z,0.93
2023-03-25T18:07:42.301Z,1.30
2023-03-25T18:10:18.429Z,1.13
2023-03-25T18:12:45.991Z,1.55
2023-03-25T18:15:13.038Z,1.20
2023-03-25T18:17:39.850Z,1.27
2023-03-25T18:20:15.520Z,1.42
2023-03-25T18:22:42.740Z,1.90
2023-03-25T18:25:10.043Z,1.63
2023-03-25T18:27:43.835Z,1.98
2023-03-25T18:30:41.845Z,1.85
2023-03-25T18:33:09.063Z,1.60
2023-03-25T18:35:35.999Z,1.60
2023-03-25T18:38:02.685Z,1.52
2023-03-25T18:40:34.116Z,1.23
2023-03-25T18:43:00.998Z,1.50
2023-03-25T18:45:27.994Z,1.50
2023-03-25T18:47:55.873Z,1.70
2023-03-25T18:50:36.469Z,1.73
2023-03-25T18:53:04.644Z,1.40
2023-03-25T18:55:33.838Z,1.48
2023-03-25T18:58:00.661Z,1.25
2023-03-25T19:00:37.110Z,1.23
2023-03-25T19:03:04.259Z,1.27
2023-03-25T19:05:32.108Z,1.48
2023-03-25T19:07:58.782Z,1.25
2023-03-25T19:10:31.344Z,1.17
2023-03-25T19:12:58.627Z,1.33
2023-03-25T19:15:27.581Z,1.70
2023-03-25T19:17:57.836Z,1.65
2023-03-25T19:20:27.176Z,1.85
2023-03-25T19:22:54.177Z,1.63
2023-03-25T19:25:21.601Z,2.08
2023-03-25T19:27:49.201Z,1.83
2023-03-25T19:30:17.629Z,1.20
2023-03-25T19:32:44.717Z,1.55
2023-03-25T19:35:12.519Z,1.52
2023-03-25T19:37:47.282Z,1.38
2023-03-25T19:40:19.957Z,1.17
2023-03-25T19:42:47.857Z,1.50
2023-03-25T19:45:15.523Z,1.27
2023-03-25T19:47:44.040Z,1.40
2023-03-25T19:50:11.834Z,1.60
2023-03-25T19:52:39.139Z,1.55
2023-03-25T19:55:07.109Z,1.42
2023-03-25T19:57:34.323Z,1.38
2023-03-25T20:00:02.250Z,1.48
2023-03-25T20:02:33.340Z,1.20
2023-03-25T20:05:01.243Z,1.50
2023-03-25T20:07:28.265Z,1.67
2023-03-25T20:09:55.569Z,1.58
2023-03-25T20:12:22.258Z,1.40
2023-03-25T20:14:49.082Z,1.40
2023-03-25T20:17:16.005Z,1.20
2023-03-25T20:19:42.607Z,1.55
2023-03-25T20:22:18.447Z,1.67
2023-03-25T20:24:51.324Z,1.30
2023-03-25T20:27:18.051Z,1.42
2023-03-25T20:29:44.742Z,2.20
2023-03-25T20:32:11.754Z,1.30
2023-03-25T20:34:38.460Z,1.40
2023-03-25T20:37:05.236Z,1.38
2023-03-25T20:39:31.843Z,1.60
2023-03-25T20:41:58.469Z,1.70
2023-03-25T20:44:25.510Z,1.52
2023-03-25T20:46:52.194Z,1.10
2023-03-25T20:49:19.847Z,1.92
2023-03-25T20:51:47.309Z,1.65
2023-03-25T20:54:17.159Z,1.88
2023-03-25T20:56:46.299Z,1.58
2023-03-25T20:59:14.417Z,1.38
2023-03-25T21:01:41.439Z,1.60
2023-03-25T21:04:09.549Z,1.85
2023-03-25T21:06:36.613Z,1.52
2023-03-25T21:09:07.335Z,1.50
2023-03-25T21:11:34.322Z,2.10
2023-03-25T21:14:01.220Z,1.58
2023-03-25T21:16:28.032Z,1.52
2023-03-25T21:18:56.564Z,2.35
2023-03-25T21:21:24.399Z,2.03
2023-03-25T21:23:51.110Z,1.75
2023-03-25T21:26:17.825Z,1.90
2023-03-25T21:28:44.538Z,1.63
2023-03-25T21:31:19.398Z,1.63
2023-03-25T21:33:48.790Z,1.70
2023-03-25T21:36:23.030Z,1.80
2023-03-25T21:38:49.900Z,1.75
2023-03-25T21:41:16.523Z,1.65
2023-03-25T21:43:44.167Z,1.63
2023-03-25T21:46:11.247Z,1.48
2023-03-25T21:48:38.845Z,2.05
2023-03-25T21:51:11.740Z,1.67
2023-03-25T21:53:43.705Z,1.73
2023-03-25T21:56:11.985Z,1.42
2023-03-25T21:58:41.508Z,1.70
2023-03-25T22:01:15.531Z,1.83
2023-03-25T22:03:45.253Z,1.90
2023-03-25T22:06:20.329Z,2.00
2023-03-25T22:08:47.200Z,2.03
2023-03-25T22:11:22.839Z,2.03
2023-03-25T22:13:50.170Z,2.17
2023-03-25T22:16:18.777Z,2.10
2023-03-25T22:18:46.373Z,1.83
2023-03-25T22:21:24.741Z,2.10
2023-03-25T22:23:54.768Z,2.00
2023-03-25T22:26:23.128Z,2.25
2023-03-25T22:28:54.408Z,2.00
2023-03-25T22:31:26.271Z,2.30
2023-03-25T22:33:54.942Z,1.70
2023-03-25T22:36:22.008Z,2.00
2023-03-25T22:38:52.407Z,2.10
2023-03-25T22:41:19.400Z,2.17
2023-03-25T22:43:46.813Z,1.90
2023-03-25T22:46:14.872Z,1.70
2023-03-25T22:48:42.537Z,1.75
2023-03-25T22:51:13.102Z,1.90
2023-03-25T22:53:40.292Z,1.90
2023-03-25T22:56:07.653Z,1.85
2023-03-25T22:58:34.771Z,2.20
2023-03-25T23:01:03.958Z,1.55
2023-03-25T23:03:31.514Z,1.88
2023-03-25T23:06:04.053Z,1.30
2023-03-25T23:08:34.973Z,1.60
2023-03-25T23:11:15.602Z,1.52
2023-03-25T23:13:45.777Z,2.63
2023-03-25T23:16:15.468Z,1.67
2023-03-25T23:18:42.520Z,1.77
2023-03-25T23:21:13.132Z,2.10
2023-03-25T23:23:52.899Z,1.83
2023-03-25T23:26:26.343Z,2.10
2023-03-25T23:28:56.971Z,1.65
2023-03-25T23:31:29.147Z,1.70
2023-03-25T23:33:58.373Z,1.95
2023-03-25T23:36:26.256Z,1.77
2023-03-25T23:38:53.575Z,1.80
2023-03-25T23:41:25.668Z,1.92
2023-03-25T23:43:53.962Z,1.50
2023-03-25T23:46:21.984Z,1.38
2023-03-25T23:48:49.334Z,1.65
2023-03-25T23:51:20.288Z,1.70
2023-03-25T23:53:49.217Z,2.65
2023-03-25T23:56:18.005Z,1.67
2023-03-25T23:58:45.017Z,1.70
